Chris — V7XF8 — position and weather

sailwx.info

Track history (hours):
 
Tides and Currents Weather Stations Pressure Air Temp Water Temp Dewpoint Dewpoint Depression Visibility Wind Speed Wind Dir Waves Ship Positions

Chris

Last reported at 2016-Apr-26 16:09 UTC. Time now 2016-Apr-30 01:28 UTC.
Position S 29°36' E 031°31'.

Length 225 m; draft 8.7 m.

Type: Ship. MMSI: 538004472.

Date/timePositionNaut miles runAvg speedWind from/ knotsBaromVisibWave heightAir tempDewpointWater temp
2016-Apr-26 16:09S 29°36' E 031°31'610.2
2016-Apr-26 15:33S 29°41' E 031°26'10 9.8
2016-Apr-26 14:33S 29°50' E 031°25'4 4.4
2016-Apr-26 13:33S 29°52' E 031°20'3 2.9
2016-Apr-26 12:33S 29°52' E 031°17'3 3.3
2016-Apr-26 11:32S 29°51' E 031°13'3 3.1
2016-Apr-26 10:33S 29°52' E 031°10'1 1.5
2016-Apr-26 09:34S 29°52' E 031°11'2 2.2
2016-Apr-26 08:33S 29°53' E 031°09'5 5.0
2016-Apr-26 07:33S 29°58' E 031°08'8 7.5
2016-Apr-26 06:33S 30°05' E 031°04'  
Track history (hours):
 
Tides and Currents Weather Stations Pressure Air Temp Water Temp Dewpoint Dewpoint Depression Visibility Wind Speed Wind Dir Waves Ship Positions

Chris

Last reported at 2016-Apr-26 16:09 UTC. Time now 2016-Apr-30 01:28 UTC.
Position S 29°36' E 031°31'.

Length 225 m; draft 8.7 m.

Type: Ship. MMSI: 538004472.

Date/timePositionNaut miles runAvg speedWind from/ knotsBaromVisibWave heightAir tempDewpointWater temp
2016-Apr-26 16:09S 29°36' E 031°31'610.2
2016-Apr-26 15:33S 29°41' E 031°26'10 9.8
2016-Apr-26 14:33S 29°50' E 031°25'4 4.4
2016-Apr-26 13:33S 29°52' E 031°20'3 2.9
2016-Apr-26 12:33S 29°52' E 031°17'3 3.3
2016-Apr-26 11:32S 29°51' E 031°13'3 3.1
2016-Apr-26 10:33S 29°52' E 031°10'1 1.5
2016-Apr-26 09:34S 29°52' E 031°11'2 2.2
2016-Apr-26 08:33S 29°53' E 031°09'5 5.0
2016-Apr-26 07:33S 29°58' E 031°08'8 7.5
2016-Apr-26 06:33S 30°05' E 031°04'  

Dump ship's entire track history